Terminal Aerodrome Forecast
Issued by NWS

Home | Current Version | Previous Version | Text Only | Print | Product List | Glossary On
Versions: 1 2 3 4 5 6 7 8 9 10 11 12 13 14 15 16 17 18 19 20 21 22 23 24 25 26 27 28 29 30 31 32 33 34
000
FTUS45 KGJT 251741
TAFASE
TAF
KASE 251741Z 2518/2618 34008KT P6SM VCSH SCT030 OVC050
     FM251930 27010G18KT 5SM -RA BR OVC040
     FM252100 31006KT P6SM VCTS OVC060CB
      TEMPO 2521/2601 VRB15G30KT 5SM -TSRA SCT030 BKN040CB
     FM260400 18004KT 5SM -RASN BKN030
     FM261300 VRB04KT P6SM OVC050=

USA.gov is the U.S. government's official web portal to all federal, state and local government web resources and services.